Innovator — WDG7137 — position and weather

sailwx.info

Track history (hours):
 
Tides and Currents Weather Stations Pressure Air Temp Water Temp Dewpoint Dewpoint Depression Visibility Wind Speed Wind Dir Waves Ship Positions

Innovator

Owner: Enterprise Marine Services, LLC, San Antonio, TX. More information available from US FCC via Universal Licensing System and Coast Guard Vessel Documentation Center.

Last reported at 2017-Nov-23 03:52 UTC. Time now 2017-Nov-23 05:25 UTC.
Position N 29°44' W 095°13'.

Length 23 m; draft 2.9 m.

Type: . MMSI: 367564240.

Date/timePositionNaut miles runAvg speedWind from/ knotsBaromVisibWave heightAir tempDewpointWater temp
2017-Nov-23 03:52N 29°44' W 095°13'0 0.0
2017-Nov-23 03:29N 29°44' W 095°13'0 0.0
2017-Nov-23 02:59N 29°44' W 095°13'0 0.0
2017-Nov-23 02:12N 29°44' W 095°13'0 0.0
2017-Nov-23 01:41N 29°44' W 095°13'0 0.0
2017-Nov-23 01:19N 29°44' W 095°13'  
2017-Nov-19 21:56N 30°04' W 093°38'3 4.3
2017-Nov-19 21:20N 30°04' W 093°35'2 4.2
2017-Nov-19 20:57N 30°04' W 093°33'2 3.8
2017-Nov-19 20:30N 30°04' W 093°31'2 4.1
2017-Nov-19 20:00N 30°04' W 093°29'2 3.9
2017-Nov-19 19:30N 30°04' W 093°27'2 4.3
2017-Nov-19 19:00N 30°04' W 093°24'2 3.9
2017-Nov-19 18:30N 30°04' W 093°22'1 2.4
2017-Nov-19 18:00N 30°04' W 093°21'2 3.4
2017-Nov-19 17:30N 30°06' W 093°19'2 3.0
2017-Nov-19 17:00N 30°05' W 093°18'1 1.1
2017-Nov-19 16:30N 30°05' W 093°17'1 2.6
2017-Nov-19 16:00N 30°04' W 093°16'0 0.2
2017-Nov-19 15:30N 30°04' W 093°16'0 0.0
2017-Nov-19 15:00N 30°04' W 093°16'0 0.1
2017-Nov-19 14:30N 30°04' W 093°16'0 0.1
2017-Nov-19 14:00N 30°04' W 093°16'0 0.1
2017-Nov-19 13:30N 30°04' W 093°16'0 0.1
2017-Nov-19 13:00N 30°04' W 093°16'0 0.1
2017-Nov-19 12:30N 30°04' W 093°16'0 0.0
2017-Nov-19 12:00N 30°04' W 093°16'1 1.0
2017-Nov-19 11:30N 30°04' W 093°16'2 3.1
2017-Nov-19 11:00N 30°02' W 093°15'0 0.9
2017-Nov-19 10:30N 30°02' W 093°15'0 0.1
2017-Nov-19 10:00N 30°02' W 093°15'0 0.0
2017-Nov-19 09:30N 30°02' W 093°15'0 0.0
2017-Nov-19 09:00N 30°02' W 093°15'0 0.0
2017-Nov-19 08:30N 30°02' W 093°15'0 0.0
2017-Nov-19 08:00N 30°02' W 093°15'0 0.3
2017-Nov-19 07:30N 30°02' W 093°15'0 0.8
2017-Nov-19 07:00N 30°02' W 093°15'0 0.7
2017-Nov-19 06:30N 30°02' W 093°16'0 0.3
2017-Nov-19 06:00N 30°02' W 093°15'2 3.2
2017-Nov-19 05:30N 30°01' W 093°14'2 3.8
2017-Nov-19 05:00N 29°60' W 093°13'2 3.5
2017-Nov-19 04:30N 29°58' W 093°12'2 4.0
2017-Nov-19 04:00N 29°57' W 093°10'2 3.7
2017-Nov-19 03:30N 29°56' W 093°08'40 4.0
2017-Nov-18 17:35N 29°52' W 092°23'2 4.1
2017-Nov-18 17:13N 29°51' W 092°22'1 4.0
2017-Nov-18 16:51N 29°51' W 092°20'2 4.3
2017-Nov-18 16:30N 29°50' W 092°18'2 4.0
2017-Nov-18 16:00N 29°49' W 092°17'2 3.8
2017-Nov-18 15:30N 29°48' W 092°15'1 1.4
2017-Nov-18 15:00N 29°48' W 092°14'1 2.2
2017-Nov-18 14:30N 29°47' W 092°13'1 2.4
2017-Nov-18 14:00N 29°47' W 092°12'2 4.2
2017-Nov-18 13:30N 29°47' W 092°09'2 4.8
2017-Nov-18 13:00N 29°48' W 092°07'2 4.7
2017-Nov-18 12:30N 29°48' W 092°04'2 4.5
2017-Nov-18 12:00N 29°49' W 092°02'2 4.6
2017-Nov-18 11:30N 29°50' W 091°59'56 4.0
2017-Nov-17 21:26N 29°34' W 090°57'2 5.1
2017-Nov-17 21:00N 29°33' W 090°55'3 4.9
2017-Nov-17 20:29N 29°32' W 090°52'2 4.8
2017-Nov-17 20:00N 29°32' W 090°49'2 4.6
2017-Nov-17 19:30N 29°32' W 090°47'2 3.4
2017-Nov-17 19:00N 29°33' W 090°45'2 3.8
2017-Nov-17 18:30N 29°34' W 090°43'0 0.6
2017-Nov-17 18:00N 29°34' W 090°43'1 1.8
2017-Nov-17 17:30N 29°35' W 090°43'2 3.8
2017-Nov-17 17:00N 29°37' W 090°42'2 4.4
2017-Nov-17 16:30N 29°36' W 090°40'2 3.5
2017-Nov-17 16:00N 29°35' W 090°38'2 3.8
2017-Nov-17 15:30N 29°35' W 090°36'2 4.4
2017-Nov-17 15:00N 29°34' W 090°33'2 4.4
2017-Nov-17 14:30N 29°34' W 090°31'5 2.8
2017-Nov-17 12:45N 29°33' W 090°25'0 0.0
2017-Nov-17 11:54N 29°33' W 090°25'0 0.0
2017-Nov-17 11:30N 29°33' W 090°25'0 0.1
2017-Nov-17 07:58N 29°33' W 090°25'  
Track history (hours):
 
Tides and Currents Weather Stations Pressure Air Temp Water Temp Dewpoint Dewpoint Depression Visibility Wind Speed Wind Dir Waves Ship Positions

Innovator

Owner: Enterprise Marine Services, LLC, San Antonio, TX. More information available from US FCC via Universal Licensing System and Coast Guard Vessel Documentation Center.

Last reported at 2017-Nov-23 03:52 UTC. Time now 2017-Nov-23 05:25 UTC.
Position N 29°44' W 095°13'.

Length 23 m; draft 2.9 m.

Type: . MMSI: 367564240.

Date/timePositionNaut miles runAvg speedWind from/ knotsBaromVisibWave heightAir tempDewpointWater temp
2017-Nov-23 03:52N 29°44' W 095°13'0 0.0
2017-Nov-23 03:29N 29°44' W 095°13'0 0.0
2017-Nov-23 02:59N 29°44' W 095°13'0 0.0
2017-Nov-23 02:12N 29°44' W 095°13'0 0.0
2017-Nov-23 01:41N 29°44' W 095°13'0 0.0
2017-Nov-23 01:19N 29°44' W 095°13'  
2017-Nov-19 21:56N 30°04' W 093°38'3 4.3
2017-Nov-19 21:20N 30°04' W 093°35'2 4.2
2017-Nov-19 20:57N 30°04' W 093°33'2 3.8
2017-Nov-19 20:30N 30°04' W 093°31'2 4.1
2017-Nov-19 20:00N 30°04' W 093°29'2 3.9
2017-Nov-19 19:30N 30°04' W 093°27'2 4.3
2017-Nov-19 19:00N 30°04' W 093°24'2 3.9
2017-Nov-19 18:30N 30°04' W 093°22'1 2.4
2017-Nov-19 18:00N 30°04' W 093°21'2 3.4
2017-Nov-19 17:30N 30°06' W 093°19'2 3.0
2017-Nov-19 17:00N 30°05' W 093°18'1 1.1
2017-Nov-19 16:30N 30°05' W 093°17'1 2.6
2017-Nov-19 16:00N 30°04' W 093°16'0 0.2
2017-Nov-19 15:30N 30°04' W 093°16'0 0.0
2017-Nov-19 15:00N 30°04' W 093°16'0 0.1
2017-Nov-19 14:30N 30°04' W 093°16'0 0.1
2017-Nov-19 14:00N 30°04' W 093°16'0 0.1
2017-Nov-19 13:30N 30°04' W 093°16'0 0.1
2017-Nov-19 13:00N 30°04' W 093°16'0 0.1
2017-Nov-19 12:30N 30°04' W 093°16'0 0.0
2017-Nov-19 12:00N 30°04' W 093°16'1 1.0
2017-Nov-19 11:30N 30°04' W 093°16'2 3.1
2017-Nov-19 11:00N 30°02' W 093°15'0 0.9
2017-Nov-19 10:30N 30°02' W 093°15'0 0.1
2017-Nov-19 10:00N 30°02' W 093°15'0 0.0
2017-Nov-19 09:30N 30°02' W 093°15'0 0.0
2017-Nov-19 09:00N 30°02' W 093°15'0 0.0
2017-Nov-19 08:30N 30°02' W 093°15'0 0.0
2017-Nov-19 08:00N 30°02' W 093°15'0 0.3
2017-Nov-19 07:30N 30°02' W 093°15'0 0.8
2017-Nov-19 07:00N 30°02' W 093°15'0 0.7
2017-Nov-19 06:30N 30°02' W 093°16'0 0.3
2017-Nov-19 06:00N 30°02' W 093°15'2 3.2
2017-Nov-19 05:30N 30°01' W 093°14'2 3.8
2017-Nov-19 05:00N 29°60' W 093°13'2 3.5
2017-Nov-19 04:30N 29°58' W 093°12'2 4.0
2017-Nov-19 04:00N 29°57' W 093°10'2 3.7
2017-Nov-19 03:30N 29°56' W 093°08'40 4.0
2017-Nov-18 17:35N 29°52' W 092°23'2 4.1
2017-Nov-18 17:13N 29°51' W 092°22'1 4.0
2017-Nov-18 16:51N 29°51' W 092°20'2 4.3
2017-Nov-18 16:30N 29°50' W 092°18'2 4.0
2017-Nov-18 16:00N 29°49' W 092°17'2 3.8
2017-Nov-18 15:30N 29°48' W 092°15'1 1.4
2017-Nov-18 15:00N 29°48' W 092°14'1 2.2
2017-Nov-18 14:30N 29°47' W 092°13'1 2.4
2017-Nov-18 14:00N 29°47' W 092°12'2 4.2
2017-Nov-18 13:30N 29°47' W 092°09'2 4.8
2017-Nov-18 13:00N 29°48' W 092°07'2 4.7
2017-Nov-18 12:30N 29°48' W 092°04'2 4.5
2017-Nov-18 12:00N 29°49' W 092°02'2 4.6
2017-Nov-18 11:30N 29°50' W 091°59'56 4.0
2017-Nov-17 21:26N 29°34' W 090°57'2 5.1
2017-Nov-17 21:00N 29°33' W 090°55'3 4.9
2017-Nov-17 20:29N 29°32' W 090°52'2 4.8
2017-Nov-17 20:00N 29°32' W 090°49'2 4.6
2017-Nov-17 19:30N 29°32' W 090°47'2 3.4
2017-Nov-17 19:00N 29°33' W 090°45'2 3.8
2017-Nov-17 18:30N 29°34' W 090°43'0 0.6
2017-Nov-17 18:00N 29°34' W 090°43'1 1.8
2017-Nov-17 17:30N 29°35' W 090°43'2 3.8
2017-Nov-17 17:00N 29°37' W 090°42'2 4.4
2017-Nov-17 16:30N 29°36' W 090°40'2 3.5
2017-Nov-17 16:00N 29°35' W 090°38'2 3.8
2017-Nov-17 15:30N 29°35' W 090°36'2 4.4
2017-Nov-17 15:00N 29°34' W 090°33'2 4.4
2017-Nov-17 14:30N 29°34' W 090°31'5 2.8
2017-Nov-17 12:45N 29°33' W 090°25'0 0.0
2017-Nov-17 11:54N 29°33' W 090°25'0 0.0
2017-Nov-17 11:30N 29°33' W 090°25'0 0.1
2017-Nov-17 07:58N 29°33' W 090°25'  

Dump ship's entire track history